createdAt,value
2023-03-28T00:04:17.381Z,-0.74
2023-03-28T00:09:20.715Z,-0.77
2023-03-28T00:14:24.879Z,-0.73
2023-03-28T00:19:27.586Z,-0.78
2023-03-28T00:24:30.278Z,-0.87
2023-03-28T00:29:35.338Z,-0.99
2023-03-28T00:34:38.007Z,-1.01
2023-03-28T00:39:43.458Z,-1.09
2023-03-28T00:44:50.048Z,-1.31
2023-03-28T00:49:55.320Z,-1.44
2023-03-28T00:54:59.429Z,-1.52
2023-03-28T01:00:06.850Z,-1.52
2023-03-28T01:05:10.890Z,-1.63
2023-03-28T01:10:14.248Z,-1.65
2023-03-28T01:15:18.321Z,-1.66
2023-03-28T01:20:49.282Z,-1.69
2023-03-28T01:26:27.017Z,-1.65
2023-03-28T01:31:48.650Z,-1.44
2023-03-28T01:37:05.748Z,-1.17
2023-03-28T01:42:15.971Z,-0.82
2023-03-28T01:47:27.687Z,-0.43
2023-03-28T01:52:37.744Z,-0.25
2023-03-28T01:57:50.311Z,-0.09
2023-03-28T02:02:57.982Z,0.02
2023-03-28T02:08:04.822Z,0.02
2023-03-28T02:13:15.443Z,-0.05
2023-03-28T02:18:23.685Z,-0.19
2023-03-28T02:23:33.166Z,-0.45
2023-03-28T02:28:38.514Z,-0.68
2023-03-28T02:33:42.912Z,-0.94
2023-03-28T02:38:56.392Z,-1.12
2023-03-28T02:44:27.176Z,-1.20
2023-03-28T02:49:50.063Z,-1.29
2023-03-28T02:55:03.231Z,-1.48
2023-03-28T03:00:11.509Z,-1.67
2023-03-28T03:05:14.389Z,-1.65
2023-03-28T03:10:19.120Z,-1.55
2023-03-28T03:15:21.792Z,-1.38
2023-03-28T03:20:26.048Z,-1.06
2023-03-28T03:25:31.265Z,-0.95
2023-03-28T03:30:33.895Z,-1.25
2023-03-28T03:35:36.724Z,-1.59
2023-03-28T03:40:40.995Z,-1.88
2023-03-28T03:45:45.922Z,-2.02
2023-03-28T03:50:48.682Z,-2.04
2023-03-28T03:55:52.586Z,-2.07
2023-03-28T04:00:55.755Z,-2.22
2023-03-28T04:05:58.687Z,-2.26
2023-03-28T04:11:03.256Z,-2.32
2023-03-28T04:16:06.682Z,-2.37
2023-03-28T04:21:10.358Z,-2.39
2023-03-28T04:26:15.423Z,-2.47
2023-03-28T04:31:18.020Z,-2.61
2023-03-28T04:36:22.609Z,-2.67
2023-03-28T04:41:26.731Z,-2.68
2023-03-28T04:46:29.658Z,-2.70
2023-03-28T04:51:33.244Z,-2.76
2023-03-28T04:56:37.380Z,-2.70
2023-03-28T05:01:42.011Z,-2.68
2023-03-28T05:06:45.218Z,-2.92
2023-03-28T05:11:49.279Z,-3.03
2023-03-28T05:16:52.189Z,-3.12
2023-03-28T05:21:54.771Z,-3.16
2023-03-28T05:26:58.732Z,-3.20
2023-03-28T05:32:01.387Z,-3.16
2023-03-28T05:37:04.246Z,-3.01
2023-03-28T05:42:09.277Z,-2.98
2023-03-28T05:47:11.911Z,-2.95
2023-03-28T05:52:14.545Z,-2.89
2023-03-28T05:57:18.733Z,-2.87
2023-03-28T06:02:23.086Z,-2.72
2023-03-28T06:07:39.204Z,-2.38
2023-03-28T06:12:46.301Z,-1.85
2023-03-28T06:17:49.040Z,-1.50
2023-03-28T06:22:52.237Z,-1.23
2023-03-28T06:27:56.838Z,-0.97
2023-03-28T06:32:59.457Z,-0.71
2023-03-28T06:38:02.223Z,0.02
2023-03-28T06:43:06.132Z,2.48
2023-03-28T06:48:08.876Z,4.74
2023-03-28T06:53:11.610Z,6.71
2023-03-28T06:58:15.489Z,7.05
2023-03-28T07:03:18.153Z,7.60
2023-03-28T07:08:21.462Z,7.26
2023-03-28T07:13:25.675Z,8.21
2023-03-28T07:18:28.286Z,7.60
2023-03-28T07:23:30.982Z,7.44
2023-03-28T07:28:35.524Z,7.43
2023-03-28T07:33:38.742Z,7.52
2023-03-28T07:38:41.972Z,8.91
2023-03-28T07:43:46.460Z,8.64
2023-03-28T07:48:49.042Z,9.02
2023-03-28T07:53:51.842Z,10.12
2023-03-28T07:58:56.025Z,10.86
2023-03-28T08:03:59.470Z,10.94
2023-03-28T08:09:02.285Z,11.79
2023-03-28T08:14:09.353Z,11.89
2023-03-28T08:19:12.356Z,11.97
2023-03-28T08:24:22.336Z,10.79
2023-03-28T08:29:33.310Z,9.91
2023-03-28T08:34:37.365Z,10.11
2023-03-28T08:39:42.443Z,10.44
2023-03-28T08:44:58.330Z,11.00
2023-03-28T08:50:09.737Z,11.40
2023-03-28T08:55:29.033Z,10.94
2023-03-28T09:00:36.995Z,11.36
2023-03-28T09:05:48.015Z,11.73
2023-03-28T09:10:57.019Z,11.52
2023-03-28T09:16:30.507Z,11.83
2023-03-28T09:21:43.906Z,10.11
2023-03-28T09:26:53.132Z,10.01
2023-03-28T09:32:01.040Z,8.98
2023-03-28T09:37:15.391Z,7.96
2023-03-28T09:42:28.377Z,8.02
2023-03-28T09:47:33.977Z,8.08
2023-03-28T09:52:36.676Z,9.13
2023-03-28T09:58:11.506Z,9.40
2023-03-28T10:03:23.350Z,9.40
2023-03-28T10:08:32.756Z,9.70
2023-03-28T10:13:40.706Z,9.50
2023-03-28T10:18:45.020Z,8.49
2023-03-28T10:23:55.134Z,8.14
2023-03-28T10:29:04.307Z,8.35
2023-03-28T10:34:26.207Z,8.18
2023-03-28T10:39:30.881Z,7.88
2023-03-28T10:44:36.561Z,8.57
2023-03-28T10:49:45.928Z,9.95
2023-03-28T10:55:01.562Z,10.64
2023-03-28T11:00:12.237Z,10.58
2023-03-28T11:05:29.029Z,9.94
2023-03-28T11:10:43.347Z,9.59
2023-03-28T11:15:56.934Z,9.28
2023-03-28T11:21:13.168Z,9.62
2023-03-28T11:26:18.932Z,9.87
2023-03-28T11:31:27.927Z,10.14
2023-03-28T11:36:37.214Z,9.72
2023-03-28T11:41:42.523Z,10.12
2023-03-28T11:46:51.588Z,10.07
2023-03-28T11:52:05.141Z,10.37
2023-03-28T11:57:16.792Z,10.04
2023-03-28T12:02:41.319Z,10.20
2023-03-28T12:07:52.260Z,10.11
2023-03-28T12:13:06.725Z,9.92
2023-03-28T12:18:16.043Z,9.51
2023-03-28T12:23:28.463Z,9.66
2023-03-28T12:28:38.937Z,9.53
2023-03-28T12:33:51.660Z,9.04
2023-03-28T12:38:59.609Z,8.67
2023-03-28T12:44:08.060Z,9.03
2023-03-28T12:49:17.737Z,9.71
2023-03-28T12:54:27.422Z,9.89
2023-03-28T12:59:48.492Z,10.29
2023-03-28T13:05:01.098Z,10.43
2023-03-28T13:10:15.745Z,9.97
2023-03-28T13:15:30.902Z,9.83
2023-03-28T13:20:33.573Z,9.23
2023-03-28T13:25:38.827Z,8.83
2023-03-28T13:30:45.605Z,8.53
2023-03-28T13:36:10.919Z,8.44
2023-03-28T13:41:35.645Z,8.87
2023-03-28T13:46:45.150Z,8.87
2023-03-28T13:51:53.132Z,8.53
2023-03-28T13:57:03.320Z,8.50
2023-03-28T14:02:18.609Z,9.00
2023-03-28T14:07:26.346Z,9.02
2023-03-28T14:12:31.609Z,8.81
2023-03-28T14:17:36.434Z,8.55
2023-03-28T14:22:49.388Z,8.52
2023-03-28T14:28:08.949Z,8.50
2023-03-28T14:33:22.044Z,8.53
2023-03-28T14:38:30.355Z,8.47
2023-03-28T14:43:34.651Z,8.73
2023-03-28T14:48:39.156Z,9.14
2023-03-28T14:53:43.139Z,8.70
2023-03-28T14:58:49.955Z,8.72
2023-03-28T15:03:57.715Z,8.95
2023-03-28T15:09:02.046Z,8.58
2023-03-28T15:14:12.745Z,8.86
2023-03-28T15:19:22.330Z,8.84
2023-03-28T15:24:27.708Z,8.53
2023-03-28T15:29:37.216Z,8.37
2023-03-28T15:40:29.374Z,8.50
2023-03-28T15:45:42.960Z,8.86
2023-03-28T15:50:50.390Z,8.67
2023-03-28T15:55:53.004Z,8.38
2023-03-28T16:00:56.998Z,8.36
2023-03-28T16:06:23.114Z,8.18
2023-03-28T16:11:34.267Z,8.13
2023-03-28T16:16:40.572Z,7.92
2023-03-28T16:21:43.259Z,8.03
2023-03-28T16:26:45.876Z,7.98
2023-03-28T16:31:49.866Z,8.06
2023-03-28T16:36:53.175Z,7.93
2023-03-28T16:41:55.918Z,7.78
2023-03-28T16:46:59.925Z,7.62
2023-03-28T16:52:02.534Z,7.53
2023-03-28T16:57:05.384Z,7.35
2023-03-28T17:02:11.586Z,7.25
2023-03-28T17:07:14.192Z,7.20
2023-03-28T17:12:16.947Z,7.13
2023-03-28T17:17:22.304Z,7.08
2023-03-28T17:22:25.611Z,7.03
2023-03-28T17:27:28.282Z,6.96
2023-03-28T17:32:32.270Z,6.87
2023-03-28T17:37:35.118Z,6.77
2023-03-28T17:42:37.897Z,6.66
2023-03-28T17:47:42.030Z,6.59
2023-03-28T17:52:44.714Z,6.49
2023-03-28T17:57:47.718Z,6.45
2023-03-28T18:02:52.738Z,6.41
2023-03-28T18:07:56.558Z,6.38
2023-03-28T18:12:59.175Z,6.28
2023-03-28T18:18:03.474Z,6.26
2023-03-28T18:23:09.374Z,6.19
2023-03-28T18:28:12.212Z,6.12
2023-03-28T18:33:17.420Z,6.06
2023-03-28T18:38:20.024Z,6.05
2023-03-28T18:43:22.963Z,6.08
2023-03-28T18:48:28.197Z,6.09
2023-03-28T18:53:30.881Z,6.11
2023-03-28T18:58:34.034Z,6.13
2023-03-28T19:03:40.591Z,6.25
2023-03-28T19:08:44.826Z,6.44
2023-03-28T19:13:48.092Z,6.54
2023-03-28T19:18:52.103Z,6.55
2023-03-28T19:23:55.268Z,6.52
2023-03-28T19:28:58.555Z,6.44
2023-03-28T19:34:02.999Z,6.34
2023-03-28T19:39:06.173Z,6.30
2023-03-28T19:44:08.875Z,6.29
2023-03-28T19:49:13.276Z,6.27
2023-03-28T19:54:16.495Z,6.29
2023-03-28T19:59:19.390Z,6.27
2023-03-28T20:04:23.352Z,6.15
2023-03-28T20:09:26.324Z,6.07
2023-03-28T20:14:29.077Z,6.00
2023-03-28T20:19:33.199Z,5.91
2023-03-28T20:24:35.804Z,5.82
2023-03-28T20:29:38.642Z,5.69
2023-03-28T20:34:42.533Z,5.62
2023-03-28T20:39:47.221Z,5.54
2023-03-28T20:44:49.911Z,5.50
2023-03-28T20:49:56.833Z,5.44
2023-03-28T20:54:59.556Z,5.40
2023-03-28T21:00:02.259Z,5.33
2023-03-28T21:05:07.840Z,5.28
2023-03-28T21:10:11.700Z,5.20
2023-03-28T21:15:15.363Z,5.20
2023-03-28T21:20:19.524Z,5.15
2023-03-28T21:25:22.513Z,5.09
2023-03-28T21:30:25.382Z,5.05
2023-03-28T21:35:29.811Z,5.02
2023-03-28T21:40:32.408Z,4.98
2023-03-28T21:45:35.006Z,4.94
2023-03-28T21:50:40.873Z,4.81
2023-03-28T21:55:43.451Z,4.70
2023-03-28T22:00:46.602Z,4.60
2023-03-28T22:05:52.738Z,4.54
2023-03-28T22:10:58.530Z,4.47
2023-03-28T22:16:01.324Z,4.40
2023-03-28T22:21:06.265Z,4.37
2023-03-28T22:26:09.182Z,4.34
2023-03-28T22:31:11.830Z,4.35
2023-03-28T22:36:15.853Z,4.33
2023-03-28T22:41:18.464Z,4.36
2023-03-28T22:46:21.234Z,4.35
2023-03-28T22:51:28.246Z,4.37
2023-03-28T22:56:31.114Z,4.34
2023-03-28T23:01:34.543Z,4.31
2023-03-28T23:06:39.927Z,4.28
2023-03-28T23:11:42.609Z,4.23
2023-03-28T23:16:45.513Z,4.20
2023-03-28T23:21:50.206Z,4.25
2023-03-28T23:26:52.733Z,4.27
2023-03-28T23:31:55.445Z,4.30
2023-03-28T23:37:02.258Z,4.32
2023-03-28T23:42:06.017Z,4.30
2023-03-28T23:47:09.109Z,4.26
2023-03-28T23:52:13.407Z,4.23
2023-03-28T23:57:16.049Z,4.21
